sensor_id;sensor_type;location;lat;lon;timestamp;P1;durP1;ratioP1;P2;durP2;ratioP2
21505;SDS011;10914;48.886;9.394;2023-05-03T00:02:06;27.58;;;25.75;;
21505;SDS011;10914;48.886;9.394;2023-05-03T00:04:32;28.33;;;26.50;;
21505;SDS011;10914;48.886;9.394;2023-05-03T00:06:58;28.55;;;26.75;;
21505;SDS011;10914;48.886;9.394;2023-05-03T00:09:23;28.10;;;26.40;;
21505;SDS011;10914;48.886;9.394;2023-05-03T00:11:48;28.17;;;26.48;;
21505;SDS011;10914;48.886;9.394;2023-05-03T00:14:13;28.37;;;26.70;;
21505;SDS011;10914;48.886;9.394;2023-05-03T00:16:39;28.83;;;27.02;;
21505;SDS011;10914;48.886;9.394;2023-05-03T00:19:04;27.75;;;25.95;;
21505;SDS011;10914;48.886;9.394;2023-05-03T00:21:29;28.58;;;26.65;;
21505;SDS011;10914;48.886;9.394;2023-05-03T00:23:55;27.98;;;26.27;;
21505;SDS011;10914;48.886;9.394;2023-05-03T00:26:21;29.05;;;27.35;;
21505;SDS011;10914;48.886;9.394;2023-05-03T00:28:46;29.70;;;27.83;;
21505;SDS011;10914;48.886;9.394;2023-05-03T00:31:11;27.80;;;25.92;;
21505;SDS011;10914;48.886;9.394;2023-05-03T00:33:36;28.67;;;26.53;;
21505;SDS011;10914;48.886;9.394;2023-05-03T00:36:14;27.88;;;26.17;;
21505;SDS011;10914;48.886;9.394;2023-05-03T00:38:39;27.90;;;26.08;;
21505;SDS011;10914;48.886;9.394;2023-05-03T00:41:05;28.92;;;26.98;;
21505;SDS011;10914;48.886;9.394;2023-05-03T00:43:30;27.88;;;26.05;;
21505;SDS011;10914;48.886;9.394;2023-05-03T00:45:57;27.77;;;26.08;;
21505;SDS011;10914;48.886;9.394;2023-05-03T00:48:22;28.13;;;26.10;;
21505;SDS011;10914;48.886;9.394;2023-05-03T00:50:47;28.50;;;26.70;;
21505;SDS011;10914;48.886;9.394;2023-05-03T00:53:13;28.70;;;26.63;;
21505;SDS011;10914;48.886;9.394;2023-05-03T00:55:38;28.33;;;26.52;;
21505;SDS011;10914;48.886;9.394;2023-05-03T00:58:03;28.40;;;26.58;;
21505;SDS011;10914;48.886;9.394;2023-05-03T01:00:29;29.60;;;27.60;;
21505;SDS011;10914;48.886;9.394;2023-05-03T01:02:55;30.02;;;28.02;;
21505;SDS011;10914;48.886;9.394;2023-05-03T01:05:21;29.40;;;27.20;;
21505;SDS011;10914;48.886;9.394;2023-05-03T01:07:53;28.90;;;27.10;;
21505;SDS011;10914;48.886;9.394;2023-05-03T01:10:22;31.20;;;29.10;;
21505;SDS011;10914;48.886;9.394;2023-05-03T01:13:10;28.92;;;27.02;;
21505;SDS011;10914;48.886;9.394;2023-05-03T01:15:44;29.15;;;27.25;;
21505;SDS011;10914;48.886;9.394;2023-05-03T01:18:13;30.13;;;28.00;;
21505;SDS011;10914;48.886;9.394;2023-05-03T01:20:41;30.02;;;28.13;;
21505;SDS011;10914;48.886;9.394;2023-05-03T01:23:09;30.80;;;28.50;;
21505;SDS011;10914;48.886;9.394;2023-05-03T01:25:36;30.88;;;28.77;;
21505;SDS011;10914;48.886;9.394;2023-05-03T01:28:01;29.40;;;27.50;;
21505;SDS011;10914;48.886;9.394;2023-05-03T01:30:26;30.73;;;28.73;;
21505;SDS011;10914;48.886;9.394;2023-05-03T01:33:09;30.45;;;28.45;;
21505;SDS011;10914;48.886;9.394;2023-05-03T01:35:43;29.10;;;27.15;;
21505;SDS011;10914;48.886;9.394;2023-05-03T01:38:10;30.42;;;28.33;;
21505;SDS011;10914;48.886;9.394;2023-05-03T01:40:41;31.95;;;29.75;;
21505;SDS011;10914;48.886;9.394;2023-05-03T01:43:08;31.77;;;29.17;;
21505;SDS011;10914;48.886;9.394;2023-05-03T01:45:34;31.23;;;29.05;;
21505;SDS011;10914;48.886;9.394;2023-05-03T01:48:00;29.63;;;27.67;;
21505;SDS011;10914;48.886;9.394;2023-05-03T01:50:25;30.80;;;28.60;;
21505;SDS011;10914;48.886;9.394;2023-05-03T01:52:50;29.87;;;27.63;;
21505;SDS011;10914;48.886;9.394;2023-05-03T01:55:17;29.63;;;27.70;;
21505;SDS011;10914;48.886;9.394;2023-05-03T01:57:42;30.55;;;28.45;;
21505;SDS011;10914;48.886;9.394;2023-05-03T02:00:08;30.08;;;27.98;;
21505;SDS011;10914;48.886;9.394;2023-05-03T02:02:33;31.50;;;29.05;;
21505;SDS011;10914;48.886;9.394;2023-05-03T02:04:59;30.45;;;28.35;;
21505;SDS011;10914;48.886;9.394;2023-05-03T02:07:24;31.98;;;29.58;;
21505;SDS011;10914;48.886;9.394;2023-05-03T02:09:49;31.98;;;29.77;;
21505;SDS011;10914;48.886;9.394;2023-05-03T02:12:15;31.30;;;29.08;;
21505;SDS011;10914;48.886;9.394;2023-05-03T02:14:40;30.35;;;28.13;;
21505;SDS011;10914;48.886;9.394;2023-05-03T02:17:06;29.98;;;27.92;;
21505;SDS011;10914;48.886;9.394;2023-05-03T02:19:32;31.35;;;29.02;;
21505;SDS011;10914;48.886;9.394;2023-05-03T02:21:57;31.52;;;28.75;;
21505;SDS011;10914;48.886;9.394;2023-05-03T02:24:22;33.73;;;30.90;;
21505;SDS011;10914;48.886;9.394;2023-05-03T02:26:48;32.65;;;29.77;;
21505;SDS011;10914;48.886;9.394;2023-05-03T02:29:13;31.10;;;28.75;;
21505;SDS011;10914;48.886;9.394;2023-05-03T02:31:38;32.27;;;29.90;;
21505;SDS011;10914;48.886;9.394;2023-05-03T02:34:03;32.97;;;30.40;;
21505;SDS011;10914;48.886;9.394;2023-05-03T02:36:29;31.90;;;29.60;;
21505;SDS011;10914;48.886;9.394;2023-05-03T02:38:55;33.92;;;31.63;;
21505;SDS011;10914;48.886;9.394;2023-05-03T02:41:20;33.88;;;31.38;;
21505;SDS011;10914;48.886;9.394;2023-05-03T02:43:45;35.67;;;33.17;;
21505;SDS011;10914;48.886;9.394;2023-05-03T02:46:10;39.03;;;36.37;;
21505;SDS011;10914;48.886;9.394;2023-05-03T02:48:35;40.38;;;37.67;;
21505;SDS011;10914;48.886;9.394;2023-05-03T02:51:01;39.60;;;36.90;;
21505;SDS011;10914;48.886;9.394;2023-05-03T02:53:27;39.53;;;36.95;;
21505;SDS011;10914;48.886;9.394;2023-05-03T02:55:52;43.47;;;40.60;;
21505;SDS011;10914;48.886;9.394;2023-05-03T02:58:17;42.20;;;39.40;;
21505;SDS011;10914;48.886;9.394;2023-05-03T03:00:42;42.40;;;39.38;;
21505;SDS011;10914;48.886;9.394;2023-05-03T03:03:08;38.22;;;35.60;;
21505;SDS011;10914;48.886;9.394;2023-05-03T03:05:33;38.85;;;36.00;;
21505;SDS011;10914;48.886;9.394;2023-05-03T03:07:58;35.33;;;32.70;;
21505;SDS011;10914;48.886;9.394;2023-05-03T03:10:23;34.83;;;32.45;;
21505;SDS011;10914;48.886;9.394;2023-05-03T03:12:49;32.75;;;30.15;;
21505;SDS011;10914;48.886;9.394;2023-05-03T03:15:14;33.67;;;31.00;;
21505;SDS011;10914;48.886;9.394;2023-05-03T03:17:39;34.58;;;31.60;;
21505;SDS011;10914;48.886;9.394;2023-05-03T03:20:05;35.83;;;33.33;;
21505;SDS011;10914;48.886;9.394;2023-05-03T03:22:30;31.45;;;29.27;;
21505;SDS011;10914;48.886;9.394;2023-05-03T03:24:56;33.33;;;30.73;;
21505;SDS011;10914;48.886;9.394;2023-05-03T03:27:21;32.60;;;30.00;;
21505;SDS011;10914;48.886;9.394;2023-05-03T03:29:48;33.88;;;31.08;;
21505;SDS011;10914;48.886;9.394;2023-05-03T03:32:13;33.78;;;31.08;;
21505;SDS011;10914;48.886;9.394;2023-05-03T03:34:39;33.65;;;31.15;;
21505;SDS011;10914;48.886;9.394;2023-05-03T03:37:04;32.55;;;30.05;;
21505;SDS011;10914;48.886;9.394;2023-05-03T03:39:29;31.55;;;29.25;;
21505;SDS011;10914;48.886;9.394;2023-05-03T03:41:55;31.92;;;29.58;;
21505;SDS011;10914;48.886;9.394;2023-05-03T03:44:20;32.70;;;30.10;;
21505;SDS011;10914;48.886;9.394;2023-05-03T03:46:45;33.25;;;30.77;;
21505;SDS011;10914;48.886;9.394;2023-05-03T03:49:10;32.30;;;29.70;;
21505;SDS011;10914;48.886;9.394;2023-05-03T03:51:36;33.25;;;30.55;;
21505;SDS011;10914;48.886;9.394;2023-05-03T03:54:01;32.30;;;29.67;;
21505;SDS011;10914;48.886;9.394;2023-05-03T03:56:26;32.67;;;30.17;;
21505;SDS011;10914;48.886;9.394;2023-05-03T03:58:51;33.38;;;30.67;;
21505;SDS011;10914;48.886;9.394;2023-05-03T04:01:16;34.20;;;31.23;;
21505;SDS011;10914;48.886;9.394;2023-05-03T04:03:45;34.17;;;31.17;;
21505;SDS011;10914;48.886;9.394;2023-05-03T04:06:11;32.42;;;29.92;;
21505;SDS011;10914;48.886;9.394;2023-05-03T04:08:36;32.50;;;30.05;;
21505;SDS011;10914;48.886;9.394;2023-05-03T04:11:01;33.80;;;31.10;;
21505;SDS011;10914;48.886;9.394;2023-05-03T04:13:26;33.47;;;30.85;;
21505;SDS011;10914;48.886;9.394;2023-05-03T04:15:54;33.07;;;30.20;;
21505;SDS011;10914;48.886;9.394;2023-05-03T04:18:20;34.97;;;31.98;;
21505;SDS011;10914;48.886;9.394;2023-05-03T04:20:46;34.65;;;31.85;;
21505;SDS011;10914;48.886;9.394;2023-05-03T04:23:12;34.45;;;31.50;;
21505;SDS011;10914;48.886;9.394;2023-05-03T04:25:37;33.45;;;30.75;;
21505;SDS011;10914;48.886;9.394;2023-05-03T04:28:02;35.38;;;32.35;;
21505;SDS011;10914;48.886;9.394;2023-05-03T04:30:28;34.28;;;31.27;;
21505;SDS011;10914;48.886;9.394;2023-05-03T04:32:53;36.40;;;33.40;;
21505;SDS011;10914;48.886;9.394;2023-05-03T04:35:19;34.25;;;31.25;;
21505;SDS011;10914;48.886;9.394;2023-05-03T04:37:44;34.72;;;31.90;;
21505;SDS011;10914;48.886;9.394;2023-05-03T04:40:10;33.28;;;30.65;;
21505;SDS011;10914;48.886;9.394;2023-05-03T04:42:36;34.10;;;31.20;;
21505;SDS011;10914;48.886;9.394;2023-05-03T04:45:02;34.85;;;32.13;;
21505;SDS011;10914;48.886;9.394;2023-05-03T04:47:28;34.17;;;31.48;;
21505;SDS011;10914;48.886;9.394;2023-05-03T04:49:53;35.08;;;32.08;;
21505;SDS011;10914;48.886;9.394;2023-05-03T04:52:18;33.97;;;31.30;;
21505;SDS011;10914;48.886;9.394;2023-05-03T04:54:44;35.28;;;32.50;;
21505;SDS011;10914;48.886;9.394;2023-05-03T04:57:09;34.33;;;31.55;;
21505;SDS011;10914;48.886;9.394;2023-05-03T04:59:35;33.33;;;30.70;;
21505;SDS011;10914;48.886;9.394;2023-05-03T05:02:00;32.22;;;29.63;;
21505;SDS011;10914;48.886;9.394;2023-05-03T05:04:25;35.88;;;32.63;;
21505;SDS011;10914;48.886;9.394;2023-05-03T05:06:51;33.28;;;30.67;;
21505;SDS011;10914;48.886;9.394;2023-05-03T05:09:21;36.60;;;33.15;;
21505;SDS011;10914;48.886;9.394;2023-05-03T05:11:46;34.47;;;31.73;;
21505;SDS011;10914;48.886;9.394;2023-05-03T05:14:11;35.67;;;32.47;;
21505;SDS011;10914;48.886;9.394;2023-05-03T05:16:37;34.45;;;31.80;;
21505;SDS011;10914;48.886;9.394;2023-05-03T05:19:02;38.03;;;35.13;;
21505;SDS011;10914;48.886;9.394;2023-05-03T05:21:28;39.88;;;36.67;;
21505;SDS011;10914;48.886;9.394;2023-05-03T05:23:53;39.05;;;36.10;;
21505;SDS011;10914;48.886;9.394;2023-05-03T05:26:18;38.15;;;35.30;;
21505;SDS011;10914;48.886;9.394;2023-05-03T05:28:43;41.87;;;38.33;;
21505;SDS011;10914;48.886;9.394;2023-05-03T05:31:08;38.45;;;35.75;;
21505;SDS011;10914;48.886;9.394;2023-05-03T05:33:34;38.70;;;35.72;;
21505;SDS011;10914;48.886;9.394;2023-05-03T05:35:59;37.75;;;34.80;;
21505;SDS011;10914;48.886;9.394;2023-05-03T05:38:24;38.45;;;35.53;;
21505;SDS011;10914;48.886;9.394;2023-05-03T05:40:50;35.72;;;32.75;;
21505;SDS011;10914;48.886;9.394;2023-05-03T05:43:15;34.50;;;31.57;;
21505;SDS011;10914;48.886;9.394;2023-05-03T05:45:40;34.58;;;31.67;;
21505;SDS011;10914;48.886;9.394;2023-05-03T05:48:05;35.53;;;32.55;;
21505;SDS011;10914;48.886;9.394;2023-05-03T05:50:32;34.45;;;31.50;;
21505;SDS011;10914;48.886;9.394;2023-05-03T05:52:57;36.72;;;33.58;;
21505;SDS011;10914;48.886;9.394;2023-05-03T05:55:22;36.58;;;33.40;;
21505;SDS011;10914;48.886;9.394;2023-05-03T05:57:48;34.50;;;31.63;;
21505;SDS011;10914;48.886;9.394;2023-05-03T06:00:13;35.08;;;32.13;;
21505;SDS011;10914;48.886;9.394;2023-05-03T06:02:39;36.17;;;33.10;;
21505;SDS011;10914;48.886;9.394;2023-05-03T06:05:04;35.13;;;32.40;;
21505;SDS011;10914;48.886;9.394;2023-05-03T06:07:30;35.35;;;32.42;;
21505;SDS011;10914;48.886;9.394;2023-05-03T06:09:55;35.50;;;32.58;;
21505;SDS011;10914;48.886;9.394;2023-05-03T06:12:20;34.65;;;31.65;;
21505;SDS011;10914;48.886;9.394;2023-05-03T06:14:45;34.50;;;31.55;;
21505;SDS011;10914;48.886;9.394;2023-05-03T06:17:11;34.42;;;31.25;;
21505;SDS011;10914;48.886;9.394;2023-05-03T06:19:36;35.37;;;32.10;;
21505;SDS011;10914;48.886;9.394;2023-05-03T06:22:01;33.40;;;30.58;;
21505;SDS011;10914;48.886;9.394;2023-05-03T06:24:27;32.67;;;30.02;;
21505;SDS011;10914;48.886;9.394;2023-05-03T06:26:55;34.53;;;31.67;;
21505;SDS011;10914;48.886;9.394;2023-05-03T06:29:21;40.03;;;36.92;;
21505;SDS011;10914;48.886;9.394;2023-05-03T06:31:46;37.80;;;34.75;;
21505;SDS011;10914;48.886;9.394;2023-05-03T06:34:11;38.90;;;35.97;;
21505;SDS011;10914;48.886;9.394;2023-05-03T06:36:36;39.75;;;37.00;;
21505;SDS011;10914;48.886;9.394;2023-05-03T06:39:02;36.22;;;33.53;;
21505;SDS011;10914;48.886;9.394;2023-05-03T06:41:29;36.42;;;33.72;;
21505;SDS011;10914;48.886;9.394;2023-05-03T06:43:54;35.20;;;32.50;;
21505;SDS011;10914;48.886;9.394;2023-05-03T06:46:19;35.58;;;32.97;;
21505;SDS011;10914;48.886;9.394;2023-05-03T06:48:45;33.30;;;30.83;;
21505;SDS011;10914;48.886;9.394;2023-05-03T06:51:10;32.92;;;30.42;;
21505;SDS011;10914;48.886;9.394;2023-05-03T06:53:35;32.38;;;29.98;;
21505;SDS011;10914;48.886;9.394;2023-05-03T06:56:00;33.35;;;30.70;;
21505;SDS011;10914;48.886;9.394;2023-05-03T06:58:27;32.83;;;30.25;;
21505;SDS011;10914;48.886;9.394;2023-05-03T07:00:53;32.50;;;29.85;;
21505;SDS011;10914;48.886;9.394;2023-05-03T07:03:18;33.97;;;30.98;;
21505;SDS011;10914;48.886;9.394;2023-05-03T07:05:43;33.38;;;30.52;;
21505;SDS011;10914;48.886;9.394;2023-05-03T07:08:09;32.45;;;29.98;;
21505;SDS011;10914;48.886;9.394;2023-05-03T07:10:34;32.20;;;29.70;;
21505;SDS011;10914;48.886;9.394;2023-05-03T07:13:00;32.28;;;29.48;;
21505;SDS011;10914;48.886;9.394;2023-05-03T07:15:25;30.97;;;28.63;;
21505;SDS011;10914;48.886;9.394;2023-05-03T07:17:50;31.40;;;28.80;;
21505;SDS011;10914;48.886;9.394;2023-05-03T07:20:15;31.70;;;29.20;;
21505;SDS011;10914;48.886;9.394;2023-05-03T07:22:42;31.58;;;29.08;;
21505;SDS011;10914;48.886;9.394;2023-05-03T07:25:07;31.48;;;29.10;;
21505;SDS011;10914;48.886;9.394;2023-05-03T07:27:33;30.35;;;28.05;;
21505;SDS011;10914;48.886;9.394;2023-05-03T07:29:58;31.55;;;29.15;;
21505;SDS011;10914;48.886;9.394;2023-05-03T07:32:24;31.08;;;28.77;;
21505;SDS011;10914;48.886;9.394;2023-05-03T07:34:49;33.03;;;30.52;;
21505;SDS011;10914;48.886;9.394;2023-05-03T07:37:15;32.70;;;30.20;;
21505;SDS011;10914;48.886;9.394;2023-05-03T07:39:40;32.22;;;29.92;;
21505;SDS011;10914;48.886;9.394;2023-05-03T07:42:05;30.58;;;28.48;;
21505;SDS011;10914;48.886;9.394;2023-05-03T07:44:31;31.98;;;29.65;;
21505;SDS011;10914;48.886;9.394;2023-05-03T07:46:56;31.70;;;29.40;;
21505;SDS011;10914;48.886;9.394;2023-05-03T07:49:22;30.98;;;28.77;;
21505;SDS011;10914;48.886;9.394;2023-05-03T07:51:47;30.60;;;28.40;;
21505;SDS011;10914;48.886;9.394;2023-05-03T07:54:12;30.00;;;27.85;;
21505;SDS011;10914;48.886;9.394;2023-05-03T07:56:37;30.85;;;28.50;;
21505;SDS011;10914;48.886;9.394;2023-05-03T07:59:02;29.87;;;27.53;;
21505;SDS011;10914;48.886;9.394;2023-05-03T08:01:28;30.10;;;27.90;;
21505;SDS011;10914;48.886;9.394;2023-05-03T08:03:53;31.10;;;28.90;;
21505;SDS011;10914;48.886;9.394;2023-05-03T08:06:18;29.15;;;26.95;;
21505;SDS011;10914;48.886;9.394;2023-05-03T08:08:44;30.17;;;27.88;;
21505;SDS011;10914;48.886;9.394;2023-05-03T08:11:09;32.10;;;29.83;;
21505;SDS011;10914;48.886;9.394;2023-05-03T08:13:34;35.97;;;33.28;;
21505;SDS011;10914;48.886;9.394;2023-05-03T08:16:00;36.30;;;33.75;;
21505;SDS011;10914;48.886;9.394;2023-05-03T08:18:25;36.45;;;34.03;;
21505;SDS011;10914;48.886;9.394;2023-05-03T08:20:51;35.53;;;33.00;;
21505;SDS011;10914;48.886;9.394;2023-05-03T08:23:16;36.22;;;33.58;;
21505;SDS011;10914;48.886;9.394;2023-05-03T08:25:42;35.05;;;32.25;;
21505;SDS011;10914;48.886;9.394;2023-05-03T08:28:09;32.70;;;30.38;;
21505;SDS011;10914;48.886;9.394;2023-05-03T08:30:35;31.85;;;29.55;;
21505;SDS011;10914;48.886;9.394;2023-05-03T08:33:00;31.42;;;29.13;;
21505;SDS011;10914;48.886;9.394;2023-05-03T08:35:25;32.22;;;29.75;;
21505;SDS011;10914;48.886;9.394;2023-05-03T08:37:52;31.13;;;28.92;;
21505;SDS011;10914;48.886;9.394;2023-05-03T08:40:19;31.17;;;29.00;;
21505;SDS011;10914;48.886;9.394;2023-05-03T08:42:46;32.72;;;30.23;;
21505;SDS011;10914;48.886;9.394;2023-05-03T08:45:13;31.05;;;28.85;;
21505;SDS011;10914;48.886;9.394;2023-05-03T08:47:40;30.98;;;28.67;;
21505;SDS011;10914;48.886;9.394;2023-05-03T08:50:06;31.42;;;28.92;;
21505;SDS011;10914;48.886;9.394;2023-05-03T08:52:32;31.25;;;28.77;;
21505;SDS011;10914;48.886;9.394;2023-05-03T08:54:58;29.42;;;27.23;;
21505;SDS011;10914;48.886;9.394;2023-05-03T08:57:23;29.63;;;27.25;;
21505;SDS011;10914;48.886;9.394;2023-05-03T08:59:49;28.58;;;26.58;;
21505;SDS011;10914;48.886;9.394;2023-05-03T09:02:15;28.17;;;26.17;;
21505;SDS011;10914;48.886;9.394;2023-05-03T09:04:41;29.40;;;27.23;;
21505;SDS011;10914;48.886;9.394;2023-05-03T09:07:07;28.45;;;26.50;;
21505;SDS011;10914;48.886;9.394;2023-05-03T09:09:32;29.95;;;27.77;;
21505;SDS011;10914;48.886;9.394;2023-05-03T09:11:57;29.47;;;27.57;;
21505;SDS011;10914;48.886;9.394;2023-05-03T09:14:22;29.07;;;26.87;;
21505;SDS011;10914;48.886;9.394;2023-05-03T09:16:48;29.38;;;27.33;;
21505;SDS011;10914;48.886;9.394;2023-05-03T09:19:13;29.50;;;27.30;;
21505;SDS011;10914;48.886;9.394;2023-05-03T09:21:40;28.58;;;26.48;;
21505;SDS011;10914;48.886;9.394;2023-05-03T09:24:16;27.40;;;25.60;;
21505;SDS011;10914;48.886;9.394;2023-05-03T09:26:41;25.38;;;23.67;;
21505;SDS011;10914;48.886;9.394;2023-05-03T09:29:07;26.83;;;25.02;;
21505;SDS011;10914;48.886;9.394;2023-05-03T09:31:33;28.08;;;25.95;;
21505;SDS011;10914;48.886;9.394;2023-05-03T09:33:58;28.67;;;26.50;;
21505;SDS011;10914;48.886;9.394;2023-05-03T09:36:24;28.02;;;26.15;;
21505;SDS011;10914;48.886;9.394;2023-05-03T09:38:50;27.33;;;25.52;;
21505;SDS011;10914;48.886;9.394;2023-05-03T09:41:15;26.42;;;24.60;;
21505;SDS011;10914;48.886;9.394;2023-05-03T09:43:50;27.17;;;25.23;;
21505;SDS011;10914;48.886;9.394;2023-05-03T09:46:16;26.92;;;25.02;;
21505;SDS011;10914;48.886;9.394;2023-05-03T09:48:41;28.02;;;26.23;;
21505;SDS011;10914;48.886;9.394;2023-05-03T09:51:07;28.27;;;26.48;;
21505;SDS011;10914;48.886;9.394;2023-05-03T09:53:34;28.20;;;26.30;;
21505;SDS011;10914;48.886;9.394;2023-05-03T09:56:03;26.98;;;25.27;;
21505;SDS011;10914;48.886;9.394;2023-05-03T09:58:28;27.85;;;25.95;;
21505;SDS011;10914;48.886;9.394;2023-05-03T10:00:55;28.70;;;26.55;;
21505;SDS011;10914;48.886;9.394;2023-05-03T10:03:22;28.10;;;26.20;;
21505;SDS011;10914;48.886;9.394;2023-05-03T10:05:49;27.27;;;25.27;;
21505;SDS011;10914;48.886;9.394;2023-05-03T10:10:48;26.25;;;24.45;;
21505;SDS011;10914;48.886;9.394;2023-05-03T10:13:15;27.75;;;25.85;;
21505;SDS011;10914;48.886;9.394;2023-05-03T10:15:41;27.05;;;25.25;;
21505;SDS011;10914;48.886;9.394;2023-05-03T10:18:07;26.45;;;24.67;;
21505;SDS011;10914;48.886;9.394;2023-05-03T10:20:44;25.98;;;24.27;;
21505;SDS011;10914;48.886;9.394;2023-05-03T10:23:14;26.75;;;24.83;;
21505;SDS011;10914;48.886;9.394;2023-05-03T10:26:11;25.83;;;24.02;;
21505;SDS011;10914;48.886;9.394;2023-05-03T10:28:25;26.55;;;24.88;;
21505;SDS011;10914;48.886;9.394;2023-05-03T10:30:50;26.65;;;24.85;;
21505;SDS011;10914;48.886;9.394;2023-05-03T10:35:41;26.43;;;24.73;;
21505;SDS011;10914;48.886;9.394;2023-05-03T10:38:13;27.20;;;25.48;;
21505;SDS011;10914;48.886;9.394;2023-05-03T10:40:42;27.05;;;25.38;;
21505;SDS011;10914;48.886;9.394;2023-05-03T10:43:13;26.92;;;25.13;;
21505;SDS011;10914;48.886;9.394;2023-05-03T10:45:55;26.63;;;24.92;;
21505;SDS011;10914;48.886;9.394;2023-05-03T10:48:20;26.52;;;24.70;;
21505;SDS011;10914;48.886;9.394;2023-05-03T10:50:47;25.80;;;23.92;;
21505;SDS011;10914;48.886;9.394;2023-05-03T10:56:12;26.38;;;24.77;;
21505;SDS011;10914;48.886;9.394;2023-05-03T10:58:41;26.13;;;24.33;;
21505;SDS011;10914;48.886;9.394;2023-05-03T11:01:08;26.08;;;24.38;;
21505;SDS011;10914;48.886;9.394;2023-05-03T11:06:31;25.85;;;24.23;;
21505;SDS011;10914;48.886;9.394;2023-05-03T11:08:57;25.73;;;24.00;;
21505;SDS011;10914;48.886;9.394;2023-05-03T11:11:22;24.95;;;23.45;;
21505;SDS011;10914;48.886;9.394;2023-05-03T11:13:49;24.45;;;22.92;;
21505;SDS011;10914;48.886;9.394;2023-05-03T11:16:14;25.50;;;24.00;;
21505;SDS011;10914;48.886;9.394;2023-05-03T11:18:39;24.52;;;22.98;;
21505;SDS011;10914;48.886;9.394;2023-05-03T11:21:05;22.52;;;21.17;;
21505;SDS011;10914;48.886;9.394;2023-05-03T11:23:30;23.83;;;22.33;;
21505;SDS011;10914;48.886;9.394;2023-05-03T11:25:55;22.87;;;21.43;;
21505;SDS011;10914;48.886;9.394;2023-05-03T11:28:26;24.80;;;23.27;;
21505;SDS011;10914;48.886;9.394;2023-05-03T11:30:52;22.33;;;20.92;;
21505;SDS011;10914;48.886;9.394;2023-05-03T11:33:17;22.88;;;21.38;;
21505;SDS011;10914;48.886;9.394;2023-05-03T11:35:42;22.83;;;21.42;;
21505;SDS011;10914;48.886;9.394;2023-05-03T11:38:08;22.85;;;21.45;;
21505;SDS011;10914;48.886;9.394;2023-05-03T11:40:34;21.60;;;20.30;;
21505;SDS011;10914;48.886;9.394;2023-05-03T11:43:00;21.25;;;19.95;;
21505;SDS011;10914;48.886;9.394;2023-05-03T11:45:30;21.05;;;19.65;;
21505;SDS011;10914;48.886;9.394;2023-05-03T11:47:56;21.30;;;20.00;;
21505;SDS011;10914;48.886;9.394;2023-05-03T11:53:05;20.58;;;19.38;;
21505;SDS011;10914;48.886;9.394;2023-05-03T11:55:31;20.33;;;19.02;;
21505;SDS011;10914;48.886;9.394;2023-05-03T11:57:56;21.70;;;20.40;;
21505;SDS011;10914;48.886;9.394;2023-05-03T12:00:22;20.80;;;19.50;;
21505;SDS011;10914;48.886;9.394;2023-05-03T12:02:49;20.48;;;19.25;;
21505;SDS011;10914;48.886;9.394;2023-05-03T12:05:14;20.42;;;19.13;;
21505;SDS011;10914;48.886;9.394;2023-05-03T12:07:39;20.92;;;19.45;;
21505;SDS011;10914;48.886;9.394;2023-05-03T12:10:17;19.70;;;18.35;;
21505;SDS011;10914;48.886;9.394;2023-05-03T12:12:55;20.60;;;19.30;;
21505;SDS011;10914;48.886;9.394;2023-05-03T12:15:31;19.70;;;18.50;;
21505;SDS011;10914;48.886;9.394;2023-05-03T12:17:57;20.52;;;19.23;;
21505;SDS011;10914;48.886;9.394;2023-05-03T12:20:22;20.58;;;19.27;;
21505;SDS011;10914;48.886;9.394;2023-05-03T12:22:48;19.98;;;18.77;;
21505;SDS011;10914;48.886;9.394;2023-05-03T12:25:14;20.48;;;19.10;;
21505;SDS011;10914;48.886;9.394;2023-05-03T12:27:39;21.20;;;19.90;;
21505;SDS011;10914;48.886;9.394;2023-05-03T12:30:05;20.75;;;19.45;;
21505;SDS011;10914;48.886;9.394;2023-05-03T12:32:30;22.15;;;20.67;;
21505;SDS011;10914;48.886;9.394;2023-05-03T12:34:56;21.20;;;20.00;;
21505;SDS011;10914;48.886;9.394;2023-05-03T12:37:21;20.70;;;19.50;;
21505;SDS011;10914;48.886;9.394;2023-05-03T12:39:46;20.83;;;19.63;;
21505;SDS011;10914;48.886;9.394;2023-05-03T12:42:11;20.67;;;19.48;;
21505;SDS011;10914;48.886;9.394;2023-05-03T12:44:40;20.00;;;18.88;;
21505;SDS011;10914;48.886;9.394;2023-05-03T12:47:06;20.13;;;18.92;;
21505;SDS011;10914;48.886;9.394;2023-05-03T12:49:31;20.23;;;18.80;;
21505;SDS011;10914;48.886;9.394;2023-05-03T12:51:56;19.27;;;18.17;;
21505;SDS011;10914;48.886;9.394;2023-05-03T12:54:24;20.42;;;19.17;;
21505;SDS011;10914;48.886;9.394;2023-05-03T12:56:49;20.00;;;18.70;;
21505;SDS011;10914;48.886;9.394;2023-05-03T12:59:15;22.55;;;20.92;;
21505;SDS011;10914;48.886;9.394;2023-05-03T13:01:40;22.00;;;20.70;;
21505;SDS011;10914;48.886;9.394;2023-05-03T13:04:06;21.20;;;20.00;;
21505;SDS011;10914;48.886;9.394;2023-05-03T13:06:31;21.95;;;20.70;;
21505;SDS011;10914;48.886;9.394;2023-05-03T13:08:58;21.65;;;20.42;;
21505;SDS011;10914;48.886;9.394;2023-05-03T13:11:23;21.67;;;20.27;;
21505;SDS011;10914;48.886;9.394;2023-05-03T13:13:50;21.30;;;20.02;;
21505;SDS011;10914;48.886;9.394;2023-05-03T13:16:15;21.00;;;19.63;;
21505;SDS011;10914;48.886;9.394;2023-05-03T13:18:41;21.57;;;20.20;;
21505;SDS011;10914;48.886;9.394;2023-05-03T13:21:06;21.17;;;19.95;;
21505;SDS011;10914;48.886;9.394;2023-05-03T13:23:32;21.45;;;20.23;;
21505;SDS011;10914;48.886;9.394;2023-05-03T13:25:58;20.38;;;19.17;;
21505;SDS011;10914;48.886;9.394;2023-05-03T13:28:23;19.80;;;18.70;;
21505;SDS011;10914;48.886;9.394;2023-05-03T13:30:48;20.65;;;19.55;;
21505;SDS011;10914;48.886;9.394;2023-05-03T13:33:14;20.27;;;19.13;;
21505;SDS011;10914;48.886;9.394;2023-05-03T13:35:39;19.95;;;18.85;;
21505;SDS011;10914;48.886;9.394;2023-05-03T13:38:04;20.50;;;19.15;;
21505;SDS011;10914;48.886;9.394;2023-05-03T13:40:29;20.13;;;18.70;;
21505;SDS011;10914;48.886;9.394;2023-05-03T13:42:54;18.37;;;17.37;;
21505;SDS011;10914;48.886;9.394;2023-05-03T13:45:20;18.05;;;17.15;;
21505;SDS011;10914;48.886;9.394;2023-05-03T13:47:45;18.37;;;17.37;;
21505;SDS011;10914;48.886;9.394;2023-05-03T13:50:11;17.67;;;16.67;;
21505;SDS011;10914;48.886;9.394;2023-05-03T13:52:36;18.80;;;17.67;;
21505;SDS011;10914;48.886;9.394;2023-05-03T13:55:01;18.80;;;17.70;;
21505;SDS011;10914;48.886;9.394;2023-05-03T13:57:28;17.95;;;16.95;;
21505;SDS011;10914;48.886;9.394;2023-05-03T13:59:53;17.85;;;16.85;;
21505;SDS011;10914;48.886;9.394;2023-05-03T14:02:18;18.30;;;17.20;;
21505;SDS011;10914;48.886;9.394;2023-05-03T14:04:43;19.08;;;17.70;;
21505;SDS011;10914;48.886;9.394;2023-05-03T14:07:10;18.50;;;17.50;;
21505;SDS011;10914;48.886;9.394;2023-05-03T14:09:35;20.27;;;18.98;;
21505;SDS011;10914;48.886;9.394;2023-05-03T14:12:04;19.80;;;18.50;;
21505;SDS011;10914;48.886;9.394;2023-05-03T14:14:29;19.30;;;18.20;;
21505;SDS011;10914;48.886;9.394;2023-05-03T14:16:54;19.75;;;18.67;;
21505;SDS011;10914;48.886;9.394;2023-05-03T14:19:20;19.07;;;17.80;;
21505;SDS011;10914;48.886;9.394;2023-05-03T14:21:45;20.10;;;18.77;;
21505;SDS011;10914;48.886;9.394;2023-05-03T14:24:14;20.70;;;19.23;;
21505;SDS011;10914;48.886;9.394;2023-05-03T14:26:39;22.35;;;20.63;;
21505;SDS011;10914;48.886;9.394;2023-05-03T14:29:05;17.98;;;16.98;;